KSME/SME METAR and TAF weather

Enter ICAO airport designator
Station Type Date Time Source
KSME METAR 2019/08/25 17:55 UTC NOAA

KSME 251755Z AUTO 14004KT 10SM DZ SCT016 BKN025 OVC120 22/21 A3008 RMK AO2


Station Type Date Time Source
KSME Decoded METAR 2019/08/25 17:55 UTC NOAA

Station name not available
Aug 25, 2019 - 01:55 PM EDT / 2019.08.25 1755 UTC
Wind: from the SE (140 degrees) at 5 MPH (4 KT):0
Visibility: 10 mile(s):0
Sky conditions: overcast
Weather: drizzle
Temperature: 71 F (22 C)
Dew Point: 69 F (21 C)
Relative Humidity: 94%
Pressure (altimeter): 30.08 in. Hg (1018 hPa)
ob: KSME 251755Z AUTO 14004KT 10SM DZ SCT016 BKN025 OVC120 22/21 A3008 RMK AO2
cycle: 18

Station Type Date Time Source
KSME TAF 2019/08/25 18:40 UTC NOAA

TAF KSME 251737Z 2518/2618 VRB03KT P6SM VCSH OVC040
FM260800 VRB04KT P6SM SHRA SCT013 OVC035
FM260900 VRB04KT 5SM SHRA BR SCT016 OVC028
FM261700 16006KT P6SM SHRA SCT007 OVC024

Example: see airport list